createdAt,value
2018-11-14T00:01:22.818Z,97469.29
2018-11-14T00:03:56.531Z,97469.58
2018-11-14T00:06:29.747Z,97474.16
2018-11-14T00:09:01.479Z,97466.42
2018-11-14T00:11:31.743Z,97461.45
2018-11-14T00:14:02.126Z,97456.79
2018-11-14T00:16:32.750Z,97459.59
2018-11-14T00:19:02.790Z,97458.47
2018-11-14T00:21:33.854Z,97467.33
2018-11-14T00:24:06.049Z,97463.18
2018-11-14T00:26:36.965Z,97469.36
2018-11-14T00:29:09.821Z,97471.31
2018-11-14T00:31:39.874Z,97480.09
2018-11-14T00:34:12.770Z,97476.58
2018-11-14T00:39:44.834Z,97471.56
2018-11-14T00:42:18.447Z,97463.44
2018-11-14T00:44:49.042Z,97468.48
2018-11-14T00:47:19.568Z,97466.77
2018-11-14T00:49:49.905Z,97467.20
2018-11-14T00:52:20.759Z,97470.65
2018-11-14T00:54:51.450Z,97466.30
2018-11-14T00:57:22.023Z,97464.36
2018-11-14T00:59:52.343Z,97463.13
2018-11-14T01:02:22.926Z,97456.73
2018-11-14T01:04:56.992Z,97458.09
2018-11-14T01:07:27.378Z,97460.11
2018-11-14T01:09:57.996Z,97461.22
2018-11-14T01:12:28.175Z,97471.50
2018-11-14T01:14:59.111Z,97472.75
2018-11-14T01:17:30.247Z,97472.21
2018-11-14T01:20:00.058Z,97463.35
2018-11-14T01:22:32.947Z,97459.34
2018-11-14T01:25:02.762Z,97456.72
2018-11-14T01:27:38.046Z,97461.61
2018-11-14T01:30:13.845Z,97458.14
2018-11-14T01:32:49.623Z,97456.50
2018-11-14T01:35:20.491Z,97456.69
2018-11-14T01:37:50.018Z,97460.22
2018-11-14T01:40:27.125Z,97450.34
2018-11-14T01:42:58.390Z,97458.09
2018-11-14T01:45:29.229Z,97450.77
2018-11-14T01:48:01.240Z,97451.48
2018-11-14T01:50:33.431Z,97455.23
2018-11-14T01:53:03.321Z,97461.13
2018-11-14T01:55:33.307Z,97455.34
2018-11-14T01:58:02.798Z,97451.81
2018-11-14T02:00:33.141Z,97448.62
2018-11-14T02:03:02.783Z,97447.76
2018-11-14T02:05:33.333Z,97439.47
2018-11-14T02:08:02.755Z,97440.03
2018-11-14T02:10:36.159Z,97441.86
2018-11-14T02:13:08.513Z,97436.62
2018-11-14T02:15:38.510Z,97435.27
2018-11-14T02:18:09.375Z,97435.34
2018-11-14T02:20:39.303Z,97434.33
2018-11-14T02:23:12.311Z,97433.13
2018-11-14T02:25:43.450Z,97430.50
2018-11-14T02:28:14.379Z,97432.80
2018-11-14T02:30:45.325Z,97429.73
2018-11-14T02:33:15.950Z,97430.02
2018-11-14T02:35:46.470Z,97433.53
2018-11-14T02:38:16.547Z,97434.95
2018-11-14T02:40:47.670Z,97434.80
2018-11-14T02:43:18.609Z,97442.20
2018-11-14T02:45:48.527Z,97435.23
2018-11-14T02:48:20.475Z,97442.44
2018-11-14T02:51:01.042Z,97432.53
2018-11-14T02:53:33.540Z,97440.81
2018-11-14T02:56:07.206Z,97442.84
2018-11-14T02:58:38.391Z,97439.92
2018-11-14T03:01:09.055Z,97439.42
2018-11-14T03:03:39.363Z,97443.89
2018-11-14T03:06:10.374Z,97445.73
2018-11-14T03:08:49.551Z,97451.83
2018-11-14T03:11:19.642Z,97456.16
2018-11-14T03:13:50.592Z,97449.86
2018-11-14T03:16:20.796Z,97451.40
2018-11-14T03:18:51.643Z,97441.95
2018-11-14T03:21:21.586Z,97448.45
2018-11-14T03:23:52.646Z,97449.22
2018-11-14T03:26:23.658Z,97445.91
2018-11-14T03:28:54.218Z,97444.70
2018-11-14T03:31:24.693Z,97444.19
2018-11-14T03:33:55.627Z,97445.06
2018-11-14T03:36:25.714Z,97445.59
2018-11-14T03:38:56.840Z,97442.22
2018-11-14T03:41:26.795Z,97446.57
2018-11-14T03:43:57.990Z,97447.01
2018-11-14T03:46:28.663Z,97447.08
2018-11-14T03:48:58.890Z,97447.01
2018-11-14T03:51:29.814Z,97451.02
2018-11-14T03:54:00.999Z,97450.82
2018-11-14T03:56:31.947Z,97448.84
2018-11-14T03:59:12.384Z,97452.79
2018-11-14T04:01:47.647Z,97452.73
2018-11-14T04:04:37.356Z,97447.70
2018-11-14T04:07:12.538Z,97442.73
2018-11-14T04:09:52.432Z,97446.92
2018-11-14T04:12:27.737Z,97444.52
2018-11-14T04:15:13.564Z,97449.60
2018-11-14T04:17:48.737Z,97451.00
2018-11-14T04:20:27.663Z,97458.23
2018-11-14T04:23:15.561Z,97448.75
2018-11-14T04:25:59.686Z,97449.56
2018-11-14T04:28:48.051Z,97453.82
2018-11-14T04:31:33.184Z,97451.34
2018-11-14T04:34:18.965Z,97445.10
2018-11-14T04:37:08.000Z,97449.08
2018-11-14T04:39:52.384Z,97453.84
2018-11-14T04:42:41.007Z,97452.76
2018-11-14T04:45:25.580Z,97449.88
2018-11-14T04:48:10.250Z,97450.22
2018-11-14T04:50:55.690Z,97460.11
2018-11-14T04:53:45.984Z,97454.42
2018-11-14T04:56:30.080Z,97457.75
2018-11-14T04:59:05.450Z,97463.59
2018-11-14T05:01:36.247Z,97458.36
2018-11-14T05:04:09.786Z,97459.22
2018-11-14T05:06:40.155Z,97456.20
2018-11-14T05:09:13.091Z,97459.05
2018-11-14T05:11:45.259Z,97465.16
2018-11-14T05:14:15.270Z,97465.58
2018-11-14T05:16:46.194Z,97460.49
2018-11-14T05:19:16.106Z,97456.42
2018-11-14T05:21:47.095Z,97448.88
2018-11-14T05:24:17.203Z,97452.70
2018-11-14T05:26:57.354Z,97453.88
2018-11-14T05:29:27.187Z,97460.23
2018-11-14T05:32:01.153Z,97462.31
2018-11-14T05:34:31.010Z,97459.72
2018-11-14T05:37:02.219Z,97461.59
2018-11-14T05:39:32.219Z,97464.02
2018-11-14T05:42:02.906Z,97475.14
2018-11-14T05:44:33.982Z,97474.92
2018-11-14T05:47:03.630Z,97468.02
2018-11-14T05:49:35.143Z,97475.52
2018-11-14T05:52:05.880Z,97472.17
2018-11-14T05:54:44.841Z,97474.92
2018-11-14T05:57:15.355Z,97475.27
2018-11-14T05:59:46.490Z,97480.05
2018-11-14T06:02:18.532Z,97481.38
2018-11-14T06:04:50.432Z,97483.52
2018-11-14T06:07:24.381Z,97486.06
2018-11-14T06:09:54.404Z,97482.66
2018-11-14T06:12:37.571Z,97486.78
2018-11-14T06:15:12.190Z,97490.16
2018-11-14T06:17:42.855Z,97490.22
2018-11-14T06:20:15.153Z,97493.69
2018-11-14T06:22:47.520Z,97492.94
2018-11-14T06:25:21.703Z,97498.27
2018-11-14T06:27:55.200Z,97499.16
2018-11-14T06:30:24.863Z,97496.10
2018-11-14T06:32:56.208Z,97498.08
2018-11-14T06:35:31.426Z,97500.27
2018-11-14T06:38:02.546Z,97491.75
2018-11-14T06:40:32.713Z,97497.38
2018-11-14T06:43:02.897Z,97502.70
2018-11-14T06:45:34.162Z,97499.89
2018-11-14T06:48:04.207Z,97500.21
2018-11-14T06:50:34.952Z,97500.62
2018-11-14T06:53:08.592Z,97495.07
2018-11-14T06:55:44.374Z,97499.90
2018-11-14T06:58:15.527Z,97501.00
2018-11-14T07:00:47.638Z,97500.74
2018-11-14T07:03:25.688Z,97505.48
2018-11-14T07:05:55.821Z,97507.91
2018-11-14T07:08:26.580Z,97508.69
2018-11-14T07:10:56.873Z,97506.43
2018-11-14T07:13:27.696Z,97505.30
2018-11-14T07:15:58.793Z,97510.51
2018-11-14T07:18:28.739Z,97500.52
2018-11-14T07:20:59.746Z,97498.69
2018-11-14T07:23:30.863Z,97497.53
2018-11-14T07:26:00.930Z,97496.16
2018-11-14T07:28:31.807Z,97496.53
2018-11-14T07:31:03.571Z,97502.45
2018-11-14T07:33:34.983Z,97503.94
2018-11-14T07:36:06.842Z,97508.70
2018-11-14T07:38:45.722Z,97507.23
2018-11-14T07:41:19.954Z,97509.22
2018-11-14T07:43:49.968Z,97508.03
2018-11-14T07:46:19.432Z,97500.63
2018-11-14T07:48:50.160Z,97493.73
2018-11-14T07:51:20.006Z,97491.20
2018-11-14T07:53:50.108Z,97495.34
2018-11-14T07:59:18.019Z,97493.92
2018-11-14T08:01:49.047Z,97490.80
2018-11-14T08:04:19.002Z,97482.41
2018-11-14T08:06:50.005Z,97481.77
2018-11-14T08:09:21.059Z,97482.52
2018-11-14T08:11:53.267Z,97479.67
2018-11-14T08:14:24.711Z,97478.77
2018-11-14T08:16:57.810Z,97474.47
2018-11-14T08:25:28.796Z,97468.84
2018-11-14T08:27:58.277Z,97463.94
2018-11-14T08:30:28.764Z,97473.72
2018-11-14T08:32:59.010Z,97463.86
2018-11-14T08:35:30.156Z,97462.25
2018-11-14T08:38:00.063Z,97462.23
2018-11-14T08:40:31.080Z,97459.99
2018-11-14T08:43:05.959Z,97456.09
2018-11-14T08:45:38.895Z,97448.77
2018-11-14T08:48:10.413Z,97445.08
2018-11-14T08:50:40.246Z,97445.88
2018-11-14T08:53:11.706Z,97439.84
2018-11-14T08:55:42.250Z,97440.08
2018-11-14T08:58:14.231Z,97429.55
2018-11-14T09:00:46.213Z,97431.02
2018-11-14T09:03:23.515Z,97432.34
2018-11-14T09:05:53.098Z,97429.84
2018-11-14T09:08:24.296Z,97434.28
2018-11-14T09:10:54.285Z,97429.33
2018-11-14T09:13:24.690Z,97428.21
2018-11-14T09:15:55.396Z,97427.27
2018-11-14T09:18:26.011Z,97422.11
2018-11-14T09:20:56.643Z,97427.14
2018-11-14T09:23:26.982Z,97420.13
2018-11-14T09:25:57.273Z,97420.34
2018-11-14T09:28:28.198Z,97420.52
2018-11-14T09:30:58.366Z,97407.37
2018-11-14T09:33:29.367Z,97401.63
2018-11-14T09:36:02.221Z,97406.36
2018-11-14T09:38:37.213Z,97398.64
2018-11-14T09:41:12.290Z,97403.19
2018-11-14T09:43:43.738Z,97398.64
2018-11-14T09:46:15.473Z,97398.16
2018-11-14T09:48:45.553Z,97404.49
2018-11-14T09:51:15.490Z,97407.02
2018-11-14T09:53:46.537Z,97400.89
2018-11-14T09:56:17.536Z,97397.33
2018-11-14T09:58:48.550Z,97397.06
2018-11-14T10:01:18.415Z,97394.69
2018-11-14T10:03:49.598Z,97393.12
2018-11-14T10:06:20.456Z,97389.16
2018-11-14T10:08:54.183Z,97391.02
2018-11-14T10:11:24.650Z,97392.49
2018-11-14T10:13:55.446Z,97387.66
2018-11-14T10:16:26.263Z,97385.56
2018-11-14T10:18:56.523Z,97385.73
2018-11-14T10:21:27.149Z,97385.26
2018-11-14T10:23:57.559Z,97382.18
2018-11-14T10:26:27.581Z,97381.59
2018-11-14T10:29:02.965Z,97370.16
2018-11-14T10:31:33.595Z,97374.81
2018-11-14T10:34:03.450Z,97371.49
2018-11-14T10:36:36.635Z,97370.09
2018-11-14T10:39:13.669Z,97369.33
2018-11-14T10:41:43.785Z,97365.52
2018-11-14T10:44:15.795Z,97365.19
2018-11-14T10:46:47.591Z,97361.27
2018-11-14T10:49:18.453Z,97353.09
2018-11-14T10:51:48.772Z,97353.98
2018-11-14T10:54:19.640Z,97348.89
2018-11-14T10:59:49.602Z,97339.01
2018-11-14T11:02:27.034Z,97335.52
2018-11-14T11:05:04.174Z,97331.34
2018-11-14T11:07:41.150Z,97325.56
2018-11-14T11:10:17.931Z,97327.00
2018-11-14T11:12:54.211Z,97316.41
2018-11-14T11:15:33.971Z,97311.11
2018-11-14T11:18:05.695Z,97306.60
2018-11-14T11:20:35.967Z,97301.67
2018-11-14T11:23:07.295Z,97294.29
2018-11-14T11:25:38.064Z,97293.79
2018-11-14T11:28:11.115Z,97295.27
2018-11-14T11:30:41.864Z,97300.70
2018-11-14T11:33:13.004Z,97291.84
2018-11-14T11:35:44.027Z,97284.09
2018-11-14T11:38:16.027Z,97290.30
2018-11-14T11:41:05.428Z,97287.62
2018-11-14T11:43:35.127Z,97283.59
2018-11-14T11:46:06.883Z,97293.39
2018-11-14T11:48:36.249Z,97297.69
2018-11-14T11:51:07.250Z,97293.89
2018-11-14T11:53:39.170Z,97305.75
2018-11-14T11:56:11.099Z,97298.99
2018-11-14T11:58:42.103Z,97292.72
2018-11-14T12:01:12.051Z,97292.59
2018-11-14T12:03:43.040Z,97293.38
2018-11-14T12:06:14.197Z,97282.18
2018-11-14T12:08:45.147Z,97282.45
2018-11-14T12:11:16.338Z,97274.34
2018-11-14T12:13:46.293Z,97268.34
2018-11-14T12:16:15.960Z,97273.13
2018-11-14T12:18:47.062Z,97265.55
2018-11-14T12:21:23.993Z,97264.63
2018-11-14T12:23:55.196Z,97267.59
2018-11-14T12:26:27.883Z,97259.16
2018-11-14T12:28:59.068Z,97253.14
2018-11-14T12:31:35.983Z,97249.13
2018-11-14T12:34:13.091Z,97238.76
2018-11-14T12:36:43.120Z,97240.66
2018-11-14T12:39:15.233Z,97236.11
2018-11-14T12:41:45.244Z,97234.72
2018-11-14T12:44:21.086Z,97243.21
2018-11-14T12:46:54.070Z,97242.46
2018-11-14T12:49:25.333Z,97244.20
2018-11-14T12:51:56.514Z,97252.94
2018-11-14T12:54:25.980Z,97239.84
2018-11-14T12:56:59.126Z,97234.75
2018-11-14T12:59:29.325Z,97230.57
2018-11-14T13:02:00.247Z,97222.77
2018-11-14T13:04:30.627Z,97225.38
2018-11-14T13:07:02.888Z,97222.94
2018-11-14T13:09:34.411Z,97221.83
2018-11-14T13:12:03.915Z,97219.56
2018-11-14T13:14:33.367Z,97223.38
2018-11-14T13:17:03.650Z,97220.98
2018-11-14T13:19:34.392Z,97219.79
2018-11-14T13:22:03.926Z,97223.25
2018-11-14T13:24:35.648Z,97231.79
2018-11-14T13:27:06.725Z,97229.48
2018-11-14T13:29:36.511Z,97233.08
2018-11-14T13:32:06.582Z,97232.11
2018-11-14T13:34:38.683Z,97236.86
2018-11-14T13:37:09.641Z,97242.41
2018-11-14T13:39:41.699Z,97244.62
2018-11-14T13:42:13.642Z,97250.70
2018-11-14T13:44:43.518Z,97240.16
2018-11-14T13:47:20.377Z,97237.70
2018-11-14T13:49:50.862Z,97243.54
2018-11-14T13:52:21.563Z,97246.45
2018-11-14T13:54:52.775Z,97239.66
2018-11-14T13:57:22.617Z,97239.86
2018-11-14T13:59:52.114Z,97243.08
2018-11-14T14:02:22.575Z,97246.83
2018-11-14T14:04:53.514Z,97249.66
2018-11-14T14:07:24.776Z,97246.00
2018-11-14T14:09:55.569Z,97238.24
2018-11-14T14:12:25.665Z,97243.91
2018-11-14T14:14:55.808Z,97242.03
2018-11-14T14:17:25.654Z,97236.83
2018-11-14T14:19:56.791Z,97238.86
2018-11-14T14:22:30.575Z,97241.08
2018-11-14T14:25:01.745Z,97242.49
2018-11-14T14:27:33.607Z,97245.55
2018-11-14T14:30:03.764Z,97245.89
2018-11-14T14:32:36.227Z,97243.07
2018-11-14T14:35:07.544Z,97233.80
2018-11-14T14:37:42.485Z,97233.53
2018-11-14T14:40:19.912Z,97238.41
2018-11-14T14:42:50.061Z,97245.34
2018-11-14T14:45:22.428Z,97255.19
2018-11-14T14:47:54.091Z,97252.00
2018-11-14T14:50:24.942Z,97248.56
2018-11-14T14:52:54.835Z,97251.20
2018-11-14T14:55:26.266Z,97259.41
2018-11-14T14:57:56.018Z,97255.69
2018-11-14T15:00:28.184Z,97257.84
2018-11-14T15:02:58.062Z,97261.10
2018-11-14T15:05:29.941Z,97264.67
2018-11-14T15:08:05.094Z,97269.03
2018-11-14T15:10:38.851Z,97272.44
2018-11-14T15:13:08.677Z,97272.23
2018-11-14T15:15:41.071Z,97276.29
2018-11-14T15:18:15.735Z,97277.64
2018-11-14T15:20:45.126Z,97275.11
2018-11-14T15:23:17.199Z,97276.72
2018-11-14T15:25:47.946Z,97272.49
2018-11-14T15:28:20.123Z,97278.20
2018-11-14T15:30:51.571Z,97280.53
2018-11-14T15:33:22.024Z,97279.17
2018-11-14T15:35:53.234Z,97283.38
2018-11-14T15:38:25.214Z,97286.12
2018-11-14T15:40:55.943Z,97276.29
2018-11-14T15:43:26.383Z,97277.47
2018-11-14T15:45:56.186Z,97286.45
2018-11-14T15:51:27.304Z,97284.47
2018-11-14T15:53:58.074Z,97290.48
2018-11-14T15:56:29.138Z,97288.27
2018-11-14T15:58:59.435Z,97292.97
2018-11-14T16:01:30.370Z,97290.84
2018-11-14T16:04:00.850Z,97292.16
2018-11-14T16:06:31.220Z,97296.30
2018-11-14T16:09:02.206Z,97298.13
2018-11-14T16:11:32.474Z,97308.69
2018-11-14T16:14:02.914Z,97308.43
2018-11-14T16:16:32.283Z,97311.59
2018-11-14T16:19:03.943Z,97313.58
2018-11-14T16:21:34.478Z,97319.98
2018-11-14T16:24:03.910Z,97314.18
2018-11-14T16:26:35.774Z,97302.66
2018-11-14T16:32:14.061Z,97298.84
2018-11-14T16:34:45.377Z,97292.00
2018-11-14T16:37:16.610Z,97299.32
2018-11-14T16:39:48.515Z,97300.19
2018-11-14T16:42:20.467Z,97302.20
2018-11-14T16:44:51.407Z,97308.52
2018-11-14T16:47:21.430Z,97306.22
2018-11-14T16:49:52.645Z,97304.08
2018-11-14T16:52:22.377Z,97306.55
2018-11-14T16:54:56.207Z,97302.63
2018-11-14T16:57:28.312Z,97305.49
2018-11-14T16:59:59.386Z,97300.64
2018-11-14T17:02:30.502Z,97302.62
2018-11-14T17:05:01.727Z,97309.82
2018-11-14T17:07:35.346Z,97241.97
2018-11-14T17:10:09.569Z,97308.58
2018-11-14T17:12:42.419Z,97310.38
2018-11-14T17:15:22.559Z,97309.41
2018-11-14T17:17:54.958Z,97309.86
2018-11-14T17:20:25.538Z,97311.84
2018-11-14T17:22:55.891Z,97310.66
2018-11-14T17:25:26.554Z,97311.05
2018-11-14T17:28:00.660Z,97316.28
2018-11-14T17:30:31.814Z,97315.03
2018-11-14T17:33:02.816Z,97311.70
2018-11-14T17:35:34.534Z,97306.00
2018-11-14T17:38:04.179Z,97305.11
2018-11-14T17:40:38.718Z,97307.00
2018-11-14T17:43:08.847Z,97313.14
2018-11-14T17:45:40.802Z,97315.78
2018-11-14T17:48:12.764Z,97314.28
2018-11-14T17:50:43.778Z,97315.51
2018-11-14T17:53:14.715Z,97321.76
2018-11-14T17:55:44.839Z,97313.05
2018-11-14T17:58:15.828Z,97317.06
2018-11-14T18:00:46.794Z,97315.88
2018-11-14T18:03:16.742Z,97319.80
2018-11-14T18:05:50.570Z,97322.72
2018-11-14T18:08:24.487Z,97321.99
2018-11-14T18:10:57.643Z,97314.51
2018-11-14T18:13:33.716Z,97316.25
2018-11-14T18:16:07.714Z,97316.57
2018-11-14T18:18:44.079Z,97319.28
2018-11-14T18:21:14.759Z,97318.45
2018-11-14T18:23:45.221Z,97317.71
2018-11-14T18:26:18.551Z,97316.52
2018-11-14T18:28:52.693Z,97319.75
2018-11-14T18:31:22.855Z,97324.56
2018-11-14T18:33:52.936Z,97317.19
2018-11-14T18:36:24.075Z,97319.98
2018-11-14T18:38:53.912Z,97332.22
2018-11-14T18:41:29.011Z,97335.73
2018-11-14T18:44:01.868Z,97336.05
2018-11-14T18:46:32.110Z,97339.19
2018-11-14T18:49:04.226Z,97337.52
2018-11-14T18:51:34.907Z,97335.55
2018-11-14T18:54:04.709Z,97333.50
2018-11-14T18:56:39.865Z,97328.95
2018-11-14T18:59:13.348Z,97331.55
2018-11-14T19:01:45.006Z,97342.97
2018-11-14T19:04:17.222Z,97345.39
2018-11-14T19:06:48.532Z,97340.27
2018-11-14T19:09:18.257Z,97341.83
2018-11-14T19:11:48.957Z,97348.65
2018-11-14T19:14:23.210Z,97342.59
2018-11-14T19:16:54.599Z,97339.36
2018-11-14T19:19:26.533Z,97346.56
2018-11-14T19:21:56.907Z,97349.88
2018-11-14T19:24:27.522Z,97345.22
2018-11-14T19:26:58.110Z,97353.45
2018-11-14T19:29:33.688Z,97358.63
2018-11-14T19:32:04.350Z,97358.16
2018-11-14T19:34:36.211Z,97360.86
2018-11-14T19:37:07.414Z,97354.08
2018-11-14T19:39:39.431Z,97349.63
2018-11-14T19:42:10.168Z,97364.41
2018-11-14T19:44:41.170Z,97358.44
2018-11-14T19:47:14.110Z,97354.47
2018-11-14T19:49:45.463Z,97353.84
2018-11-14T19:52:16.307Z,97349.40
2018-11-14T19:54:47.891Z,97350.16
2018-11-14T19:57:18.753Z,97342.89
2018-11-14T19:59:49.027Z,97340.48
2018-11-14T20:02:19.331Z,97353.81
2018-11-14T20:04:50.242Z,97346.24
2018-11-14T20:07:29.207Z,97348.93
2018-11-14T20:10:00.266Z,97341.47
2018-11-14T20:12:30.406Z,97344.78
2018-11-14T20:15:01.572Z,97344.59
2018-11-14T20:17:31.601Z,97343.41
2018-11-14T20:20:02.615Z,97345.00
2018-11-14T20:22:33.459Z,97348.82
2018-11-14T20:25:03.360Z,97348.02
2018-11-14T20:27:33.572Z,97347.95
2018-11-14T20:30:04.604Z,97347.55
2018-11-14T20:32:34.463Z,97343.17
2018-11-14T20:35:04.414Z,97350.94
2018-11-14T20:37:35.582Z,97350.54
2018-11-14T20:40:05.419Z,97346.42
2018-11-14T20:42:36.738Z,97345.58
2018-11-14T20:45:10.038Z,97345.72
2018-11-14T20:47:45.457Z,97353.16
2018-11-14T20:50:16.832Z,97353.72
2018-11-14T20:52:47.199Z,97353.41
2018-11-14T20:55:18.862Z,97344.09
2018-11-14T20:57:50.564Z,97348.48
2018-11-14T21:00:27.034Z,97343.39
2018-11-14T21:02:56.922Z,97342.05
2018-11-14T21:05:28.365Z,97339.77
2018-11-14T21:07:59.823Z,97337.93
2018-11-14T21:10:35.654Z,97342.25
2018-11-14T21:13:05.908Z,97334.74
2018-11-14T21:15:36.703Z,97340.14
2018-11-14T21:18:06.442Z,97339.33
2018-11-14T21:23:36.243Z,97338.78
2018-11-14T21:29:12.046Z,97339.98
2018-11-14T21:31:41.622Z,97336.62
2018-11-14T21:34:13.539Z,97341.87
2018-11-14T21:36:45.726Z,97338.81
2018-11-14T21:39:16.746Z,97345.86
2018-11-14T21:41:46.614Z,97343.16
2018-11-14T21:44:16.905Z,97340.89
2018-11-14T21:46:47.963Z,97333.83
2018-11-14T21:49:23.985Z,97334.41
2018-11-14T21:51:56.676Z,97332.03
2018-11-14T21:54:28.871Z,97332.59
2018-11-14T21:56:59.726Z,97334.54
2018-11-14T21:59:30.857Z,97329.61
2018-11-14T22:02:00.876Z,97332.98
2018-11-14T22:04:30.795Z,97326.63
2018-11-14T22:07:01.820Z,97329.30
2018-11-14T22:09:31.967Z,97332.41
2018-11-14T22:12:07.506Z,97332.55
2018-11-14T22:14:36.856Z,97330.17
2018-11-14T22:17:07.882Z,97320.63
2018-11-14T22:19:37.926Z,97317.83
2018-11-14T22:22:09.047Z,97318.14
2018-11-14T22:24:38.853Z,97316.59
2018-11-14T22:27:09.118Z,97315.23
2018-11-14T22:29:40.895Z,97314.42
2018-11-14T22:32:19.366Z,97292.52
2018-11-14T22:34:54.914Z,97317.02
2018-11-14T22:37:30.159Z,97310.35
2018-11-14T22:40:00.126Z,97316.64
2018-11-14T22:42:30.514Z,97316.95
2018-11-14T22:45:01.043Z,97317.85
2018-11-14T22:47:31.983Z,97319.30
2018-11-14T22:50:04.615Z,97321.17
2018-11-14T22:52:35.002Z,97318.81
2018-11-14T22:55:05.118Z,97315.55
2018-11-14T22:57:40.754Z,97314.39
2018-11-14T23:00:21.679Z,97310.19
2018-11-14T23:02:55.200Z,97312.17
2018-11-14T23:05:30.554Z,97306.78
2018-11-14T23:08:06.040Z,97315.27
2018-11-14T23:10:36.205Z,97307.27
2018-11-14T23:13:08.291Z,97292.26
2018-11-14T23:15:40.264Z,97298.62
2018-11-14T23:18:09.608Z,97298.16
2018-11-14T23:20:44.894Z,97306.67
2018-11-14T23:23:16.807Z,97303.95
2018-11-14T23:25:47.306Z,97305.00
2018-11-14T23:28:18.327Z,97304.13
2018-11-14T23:30:50.090Z,97303.78
2018-11-14T23:33:25.560Z,97299.14
2018-11-14T23:35:58.266Z,97289.05
2018-11-14T23:38:28.370Z,97297.09
2018-11-14T23:40:58.230Z,97297.31
2018-11-14T23:43:29.287Z,97301.97
2018-11-14T23:46:04.538Z,97303.37
2018-11-14T23:48:36.308Z,97309.34
2018-11-14T23:51:09.686Z,97298.70
2018-11-14T23:53:39.314Z,97297.20
2018-11-14T23:56:14.674Z,97297.20
2018-11-14T23:58:44.260Z,97304.38
